OS293 / OE-LWN 7700 Squawk Report (4th of December, 2022)

Aircraft E195 Reg No. OE-LWN Age N/A
Model Emb-195 Jet engines 2 First flight N/A
Registered 06-07-17 Rollout N/A Delivered 28-06-12
Construction No. 19000553 Line No. N/A Series 200LR
ADSHEX 44082A Airline name Austrian Airlines Owner N/A
Airfield based Vienna-Schwechat~Vienna~OE First tracked N/A

Flight history for OE-LWN

Route Flight No Date Playback
Schwechat (VIE) - Henri Coanda (OTP) OS785 2023-02-07 16:13:00
Warsaw Chopin (WAW) - Schwechat (VIE) OS626 2023-02-07 10:09:00
Schwechat (VIE) - Warsaw Chopin (WAW) OS625 2023-02-07 08:30:00
Stuttgart (STR) - Schwechat (VIE) OS188 2023-02-07 07:25:00
Schwechat (VIE) - Stuttgart (STR) OS187 2023-02-06 17:58:00
Varna (VAR) - Schwechat (VIE) OS764 2023-02-06 16:56:00
Schwechat (VIE) - Varna (VAR) OS763 2023-02-06 13:35:00
Stuttgart (STR) - Schwechat (VIE) OS178 2023-02-06 12:00:00
Schwechat (VIE) - Stuttgart (STR) OS177 2023-02-06 07:11:00
Kosice (KSC) - Schwechat (VIE) OS744 2023-02-06 06:09:00
Schwechat (VIE) - Kosice (KSC) OS743 2023-02-06 04:16:00
Geneve Cointrin (GVA) - Schwechat (VIE) OS576 2023-02-05 21:40:00
Schwechat (VIE) - Geneve Cointrin (GVA) OS575 2023-02-05 18:16:00
Tirana Rinas (TIA) - Schwechat (VIE) OS848 2023-02-05 15:17:00
Schwechat (VIE) - Tirana Rinas (TIA) OS847 2023-02-05 13:04:00
Malpensa (MXP) - Schwechat (VIE) OS512 2023-02-05 11:57:00
Schwechat (VIE) - Malpensa (MXP) OS511 2023-02-05 08:26:00
Copenhagen Airport (CPH) - Schwechat (VIE) OS304 2023-02-04 18:18:00
Schwechat (VIE) - Copenhagen Airport (CPH) OS303 2023-02-04 16:09:00
Sofia (SOF) - Schwechat (VIE) OS796 2023-02-04 14:35:00
Time Lat Lon Altitude Heading Speed Vertical Rate
2022-12-04 13:24:07 GMT 48.119606 16.543297 0 73 11 0
2022-12-04 13:24:07 GMT 48.119606 16.543297 400 116 95 0
2022-12-04 13:23:57 GMT 48.121559 16.537170 400 115 115 -320
2022-12-04 13:23:52 GMT 48.123047 16.532707 450 115 114 -704
2022-12-04 13:23:49 GMT 48.123596 16.530991 500 115 114 -768
2022-12-04 13:23:44 GMT 48.124771 16.527452 550 116 113 -640
2022-12-04 13:23:41 GMT 48.125282 16.525831 550 115 113 -704
2022-12-04 13:23:36 GMT 48.126495 16.522030 625 116 113 -640
2022-12-04 13:23:31 GMT 48.127613 16.518578 675 116 113 -640
2022-12-04 13:23:26 GMT 48.128731 16.515268 725 116 113 -704
2022-12-04 13:23:21 GMT 48.129959 16.511490 775 116 113 -640
2022-12-04 13:23:17 GMT 48.130966 16.508331 825 116 113 -640
2022-12-04 13:23:12 GMT 48.131973 16.505241 900 115 114 -640
2022-12-04 13:23:07 GMT 48.133289 16.501114 950 116 114 -640
2022-12-04 13:23:03 GMT 48.134083 16.498859 975 115 114 -704
2022-12-04 13:23:00 GMT 48.134674 16.497002 1,000 115 114 -704
2022-12-04 13:22:56 GMT 48.135681 16.493843 1,050 116 114 -640
2022-12-04 13:22:51 GMT 48.137054 16.489517 1,125 115 113 -704
2022-12-04 13:22:45 GMT 48.138271 16.485689 1,175 115 112 -640
2022-12-04 13:22:40 GMT 48.139389 16.482309 1,225 116 110 -640
2022-12-04 13:22:36 GMT 48.140350 16.479492 1,275 115 110 -704
2022-12-04 13:22:32 GMT 48.141346 16.476322 1,325 115 110 -640
2022-12-04 13:22:29 GMT 48.142548 16.472626 2,125 115 134 -896
2022-12-04 13:22:26 GMT 48.142548 16.472626 1,375 116 111 -640
2022-12-04 13:22:22 GMT 48.143532 16.469633 1,425 115 112 -640
2022-12-04 13:22:19 GMT 48.144012 16.468163 1,450 115 113 -640
2022-12-04 13:22:15 GMT 48.144882 16.465553 1,500 115 113 -704
2022-12-04 13:22:10 GMT 48.146278 16.461040 1,575 115 114 -640
2022-12-04 13:22:05 GMT 48.147125 16.458344 1,600 115 114 -640
2022-12-04 13:21:59 GMT 48.148560 16.453928 1,675 115 115 -640
2022-12-04 13:21:56 GMT 48.149399 16.451323 1,700 115 116 -640
2022-12-04 13:21:49 GMT 48.150982 16.446463 1,775 116 115 -704
2022-12-04 13:21:46 GMT 48.151794 16.443993 1,825 116 115 -768
2022-12-04 13:21:41 GMT 48.153076 16.440054 1,900 116 118 -768
2022-12-04 13:21:38 GMT 48.153397 16.439049 1,900 116 118 -768
2022-12-04 13:21:35 GMT 48.154240 16.436533 1,950 115 122 -640
2022-12-04 13:21:29 GMT 48.156006 16.431084 2,025 115 127 -704
2022-12-04 13:21:25 GMT 48.156799 16.428717 2,050 116 131 -832
2022-12-04 13:21:21 GMT 48.158112 16.424561 2,125 116 135 -896
2022-12-04 13:21:18 GMT 48.158661 16.422981 2,175 116 139 -960
2022-12-04 13:21:15 GMT 48.159546 16.420336 2,200 115 139 -960
2022-12-04 13:21:11 GMT 48.161636 16.413715 2,300 115 144 -960
2022-12-04 13:21:08 GMT 48.161636 16.413715 2,375 116 148 -832
2022-12-04 13:21:05 GMT 48.162525 16.410973 2,350 116 148 -832
2022-12-04 13:20:58 GMT 48.164619 16.404612 2,450 116 150 -832
2022-12-04 13:20:54 GMT 48.165665 16.401390 2,500 115 151 -832
2022-12-04 13:20:50 GMT 48.167320 16.396299 2,575 115 152 -832
2022-12-04 13:20:47 GMT 48.167862 16.394630 2,600 115 152 -896
2022-12-04 13:20:44 GMT 48.168671 16.392109 2,625 116 152 -960
2022-12-04 13:20:38 GMT 48.171837 16.382204 2,800 115 152 -960
2022-12-04 13:20:34 GMT 48.171837 16.382204 2,800 115 153 -960
2022-12-04 13:20:29 GMT 48.173698 16.376495 2,900 116 154 -896
2022-12-04 13:20:25 GMT 48.174866 16.372799 2,950 115 153 -896
2022-12-04 13:20:18 GMT 48.176834 16.366671 3,050 116 150 -896
2022-12-04 13:20:14 GMT 48.177982 16.363125 3,100 116 149 -832
2022-12-04 13:20:10 GMT 48.179100 16.359798 3,150 116 148 -896
2022-12-04 13:20:07 GMT 48.180496 16.355391 3,225 115 147 -832
2022-12-04 13:20:04 GMT 48.181046 16.353712 3,250 115 146 -832
2022-12-04 13:20:01 GMT 48.181938 16.350981 3,300 115 146 -896
2022-12-04 13:19:57 GMT 48.183289 16.346811 3,375 116 145 -832
2022-12-04 13:19:54 GMT 48.183987 16.344765 3,400 116 146 -832
2022-12-04 13:19:51 GMT 48.184917 16.341803 3,425 116 146 -768
2022-12-04 13:19:47 GMT 48.185989 16.338476 3,500 115 146 -768
2022-12-04 13:19:44 GMT 48.186996 16.335472 3,525 115 146 -768
2022-12-04 13:19:37 GMT 48.189606 16.327374 3,650 115 146 -832
2022-12-04 13:19:33 GMT 48.190063 16.325895 3,650 115 146 -896
2022-12-04 13:19:29 GMT 48.191757 16.320753 3,750 115 149 -960
2022-12-04 13:19:26 GMT 48.192646 16.317879 3,800 115 152 -896
2022-12-04 13:19:23 GMT 48.193085 16.316528 3,800 115 152 -896
2022-12-04 13:19:20 GMT 48.194134 16.313251 3,850 115 155 -960
2022-12-04 13:19:17 GMT 48.195328 16.309555 3,925 115 155 -960
2022-12-04 13:19:14 GMT 48.196136 16.307108 3,950 115 155 -896
2022-12-04 13:19:10 GMT 48.197296 16.303358 4,025 115 155 -960
2022-12-04 13:19:06 GMT 48.199356 16.297091 4,125 116 156 -960
2022-12-04 13:19:03 GMT 48.199356 16.297091 4,125 116 156 -960
2022-12-04 13:18:59 GMT 48.200867 16.292372 4,225 116 156 -1088
2022-12-04 13:18:56 GMT 48.202515 16.287302 4,275 115 157 -896
2022-12-04 13:18:53 GMT 48.202515 16.287302 4,300 115 157 -896
2022-12-04 13:18:49 GMT 48.203796 16.283358 4,375 115 157 -896
2022-12-04 13:18:46 GMT 48.205029 16.279570 4,425 115 158 -832
2022-12-04 13:18:43 GMT 48.205772 16.277185 4,450 115 158 -768
2022-12-04 13:18:37 GMT 48.207684 16.271187 4,525 115 157 -768
2022-12-04 13:18:33 GMT 48.208923 16.267443 4,575 115 157 -704
2022-12-04 13:18:28 GMT 48.210754 16.261789 4,650 115 158 -704
2022-12-04 13:18:25 GMT 48.211716 16.258709 4,675 115 158 -704
2022-12-04 13:18:22 GMT 48.212292 16.256947 4,675 115 157 -704
2022-12-04 13:18:18 GMT 48.213593 16.252972 4,725 115 157 -576
2022-12-04 13:18:15 GMT 48.214828 16.249203 4,750 115 157 -448
2022-12-04 13:18:12 GMT 48.215469 16.247231 4,775 115 157 -448
2022-12-04 13:18:08 GMT 48.216713 16.243431 4,800 115 160 -320
2022-12-04 13:18:05 GMT 48.218250 16.238661 4,825 115 163 -192
2022-12-04 13:18:02 GMT 48.218674 16.237301 4,825 115 163 -192
2022-12-04 13:17:56 GMT 48.220963 16.230186 4,850 115 169 -64
2022-12-04 13:17:52 GMT 48.222160 16.226662 4,850 116 172 0
2022-12-04 13:17:49 GMT 48.223526 16.222511 4,825 115 177 -64
2022-12-04 13:17:45 GMT 48.224579 16.219217 4,825 115 174 64
2022-12-04 13:17:42 GMT 48.225769 16.215609 4,825 115 176 -64
2022-12-04 13:17:38 GMT 48.227280 16.210833 4,825 115 180 64
2022-12-04 13:17:34 GMT 48.229141 16.205051 4,825 115 182 -64
2022-12-04 13:17:31 GMT 48.229656 16.203461 4,825 115 182 -64
2022-12-04 13:17:27 GMT 48.231518 16.197678 4,825 115 183 -64
2022-12-04 13:17:24 GMT 48.232452 16.194834 4,825 115 183 0
2022-12-04 13:17:21 GMT 48.233288 16.192184 4,825 115 184 64
2022-12-04 13:17:15 GMT 48.235661 16.184813 4,825 116 185 0
2022-12-04 13:17:12 GMT 48.237057 16.180620 4,825 116 185 -64
2022-12-04 13:17:08 GMT 48.238312 16.176805 4,825 116 185 -64
2022-12-04 13:17:05 GMT 48.239525 16.173176 4,825 116 184 -64
2022-12-04 13:17:02 GMT 48.240875 16.169056 4,850 116 183 0
2022-12-04 13:16:57 GMT 48.243389 16.161179 4,825 116 184 64
2022-12-04 13:16:54 GMT 48.243389 16.161179 4,825 115 184 64
2022-12-04 13:16:51 GMT 48.244690 16.157274 4,825 115 184 64
2022-12-04 13:16:47 GMT 48.246094 16.152790 4,825 115 183 0
2022-12-04 13:16:44 GMT 48.247532 16.148384 4,825 116 182 -64
2022-12-04 13:16:41 GMT 48.248508 16.145420 4,825 116 182 -64
2022-12-04 13:16:38 GMT 48.249763 16.141663 4,850 116 181 0
2022-12-04 13:16:33 GMT 48.251442 16.136747 4,850 116 180 64
2022-12-04 13:16:30 GMT 48.252373 16.134001 4,850 117 179 64
2022-12-04 13:16:26 GMT 48.254379 16.128000 4,850 115 181 64
2022-12-04 13:16:23 GMT 48.255074 16.125834 4,850 115 181 64
2022-12-04 13:16:20 GMT 48.256142 16.122437 4,825 115 181 64
2022-12-04 13:16:15 GMT 48.257912 16.116728 4,825 113 184 64
2022-12-04 13:16:11 GMT 48.260605 16.107014 4,825 112 183 -64
2022-12-04 13:16:07 GMT 48.260605 16.107014 4,825 112 185 -64
2022-12-04 13:16:03 GMT 48.262024 16.101871 4,850 118 184 64
2022-12-04 13:16:00 GMT 48.262939 16.098585 4,850 114 185 -64
2022-12-04 13:15:56 GMT 48.264194 16.094465 4,850 117 185 0
2022-12-04 13:15:52 GMT 48.265873 16.089983 4,825 123 183 64
2022-12-04 13:15:49 GMT 48.267502 16.086443 4,825 126 182 64
2022-12-04 13:15:46 GMT 48.268898 16.083912 4,825 132 181 0
2022-12-04 13:15:42 GMT 48.271320 16.080370 4,825 140 180 -64
2022-12-04 13:15:39 GMT 48.273228 16.077913 4,825 140 180 -64
2022-12-04 13:15:36 GMT 48.275185 16.075527 4,850 140 180 -64
2022-12-04 13:15:33 GMT 48.277359 16.072857 4,850 140 180 0
2022-12-04 13:15:30 GMT 48.279793 16.069818 4,850 140 180 0
2022-12-04 13:15:26 GMT 48.281982 16.067081 4,850 140 180 0
2022-12-04 13:15:22 GMT 48.283997 16.064617 4,850 140 179 0
2022-12-04 13:15:19 GMT 48.286308 16.061724 4,825 140 179 0
2022-12-04 13:15:12 GMT 48.290909 16.056026 4,875 140 180 -192
2022-12-04 13:15:09 GMT 48.292732 16.053699 4,850 140 180 -320
2022-12-04 13:15:06 GMT 48.294689 16.051315 4,875 141 181 -640
2022-12-04 13:15:03 GMT 48.297134 16.048349 4,900 141 182 -640
2022-12-04 13:15:00 GMT 48.298782 16.046448 4,925 142 182 -704
2022-12-04 13:14:56 GMT 48.301437 16.043489 4,975 145 182 -640
2022-12-04 13:14:52 GMT 48.304138 16.040762 5,000 149 181 -512
2022-12-04 13:14:48 GMT 48.306885 16.038738 5,025 156 182 -576
2022-12-04 13:14:44 GMT 48.310638 16.037292 5,075 173 182 -576
2022-12-04 13:14:40 GMT 48.316452 16.037504 5,150 192 185 -576
2022-12-04 13:14:34 GMT 48.319427 16.038771 5,175 202 188 -704
2022-12-04 13:14:29 GMT 48.324463 16.042574 5,275 210 191 -640
2022-12-04 13:14:23 GMT 48.327087 16.044882 5,400 211 190 -576
2022-12-04 13:14:20 GMT 48.331512 16.048632 5,325 211 191 -640
2022-12-04 13:14:17 GMT 48.331512 16.048632 5,350 211 190 -576
2022-12-04 13:14:13 GMT 48.334854 16.051588 5,400 211 190 -576
2022-12-04 13:14:10 GMT 48.339752 16.055885 5,475 211 191 -640
2022-12-04 13:14:07 GMT 48.339752 16.055885 5,475 211 191 -640
2022-12-04 13:14:03 GMT 48.342682 16.058397 5,500 211 191 -576
2022-12-04 13:14:00 GMT 48.345520 16.060955 5,525 211 192 -576
2022-12-04 13:13:57 GMT 48.346966 16.062229 5,575 211 192 -576
2022-12-04 13:13:53 GMT 48.350418 16.065323 5,575 211 193 -576
2022-12-04 13:13:49 GMT 48.353065 16.067650 5,625 211 194 -576
2022-12-04 13:13:46 GMT 48.355682 16.069969 5,675 211 195 -832
2022-12-04 13:13:42 GMT 48.358566 16.072506 5,725 211 196 -960
2022-12-04 13:13:39 GMT 48.363678 16.076973 5,775 211 197 -896
2022-12-04 13:13:36 GMT 48.363678 16.076973 5,825 211 195 -384
2022-12-04 13:13:33 GMT 48.366394 16.079407 5,825 211 195 -192
2022-12-04 13:13:30 GMT 48.369141 16.081873 5,825 211 195 0
2022-12-04 13:13:27 GMT 48.370800 16.083261 5,825 211 195 0
2022-12-04 13:13:24 GMT 48.372665 16.084900 5,825 211 195 0
2022-12-04 13:13:20 GMT 48.376419 16.088280 5,825 211 194 64
2022-12-04 13:13:16 GMT 48.378807 16.090345 5,825 211 194 64
2022-12-04 13:13:13 GMT 48.380947 16.092297 5,825 211 194 64
2022-12-04 13:13:10 GMT 48.383560 16.094620 5,825 211 194 0
2022-12-04 13:13:07 GMT 48.390060 16.100393 5,825 211 193 -64
2022-12-04 13:13:02 GMT 48.390060 16.100393 5,825 211 193 -64
2022-12-04 13:12:58 GMT 48.392441 16.102577 5,825 211 194 0
2022-12-04 13:12:55 GMT 48.395287 16.105017 5,825 211 194 0
2022-12-04 13:12:52 GMT 48.400543 16.109760 5,825 211 195 64
2022-12-04 13:12:49 GMT 48.400543 16.109760 5,825 211 195 0
2022-12-04 13:12:46 GMT 48.402420 16.111380 5,825 211 195 -64
2022-12-04 13:12:42 GMT 48.405670 16.114269 5,825 211 196 0
2022-12-04 13:12:38 GMT 48.408005 16.116310 5,825 211 197 -64
2022-12-04 13:12:33 GMT 48.412327 16.120050 5,825 211 197 -64
2022-12-04 13:12:28 GMT 48.416245 16.123493 5,825 211 197 0
2022-12-04 13:12:25 GMT 48.419403 16.126240 5,825 211 196 64
2022-12-04 13:12:22 GMT 48.420753 16.127424 5,825 211 196 0
2022-12-04 13:12:19 GMT 48.423203 16.129549 5,825 211 195 64
2022-12-04 13:12:16 GMT 48.426571 16.132483 5,825 211 195 64
2022-12-04 13:12:12 GMT 48.428513 16.134197 5,825 211 194 64
2022-12-04 13:12:08 GMT 48.431946 16.137226 5,825 211 194 0
2022-12-04 13:12:03 GMT 48.436485 16.141230 5,825 211 193 -64
2022-12-04 13:11:59 GMT 48.439606 16.143904 5,825 210 193 -64
2022-12-04 13:11:55 GMT 48.442120 16.146072 5,825 209 192 -128
2022-12-04 13:11:52 GMT 48.444538 16.148094 5,825 209 193 -128
2022-12-04 13:11:48 GMT 48.447472 16.150480 5,850 207 193 -64
2022-12-04 13:11:45 GMT 48.450127 16.152431 5,850 205 192 128
2022-12-04 13:11:41 GMT 48.453094 16.154268 5,850 201 190 128
2022-12-04 13:11:38 GMT 48.455841 16.155396 5,825 189 185 -64
2022-12-04 13:11:35 GMT 48.458553 16.155828 5,850 182 184 -64
2022-12-04 13:11:32 GMT 48.460236 16.155748 5,850 172 182 -64
2022-12-04 13:11:28 GMT 48.464046 16.154673 5,850 160 181 -64
2022-12-04 13:11:25 GMT 48.467396 16.152431 5,850 150 180 64
2022-12-04 13:11:21 GMT 48.470142 16.149542 5,850 143 181 128
2022-12-04 13:11:17 GMT 48.471771 16.147011 5,825 127 183 128
2022-12-04 13:11:13 GMT 48.474098 16.141808 5,825 116 186 -128
2022-12-04 13:11:10 GMT 48.474659 16.139929 5,825 113 187 -128
2022-12-04 13:11:07 GMT 48.475662 16.135748 5,825 106 189 64
2022-12-04 13:11:04 GMT 48.476521 16.131327 5,825 106 189 0
2022-12-04 13:11:01 GMT 48.477173 16.128071 5,825 107 190 64
2022-12-04 13:10:57 GMT 48.478245 16.122726 5,825 106 189 -64
2022-12-04 13:10:53 GMT 48.479080 16.118677 5,850 106 189 -64
2022-12-04 13:10:50 GMT 48.479874 16.114775 5,825 107 190 64
2022-12-04 13:10:46 GMT 48.480835 16.109831 5,850 106 190 0
2022-12-04 13:10:42 GMT 48.482071 16.103844 5,850 106 190 0
2022-12-04 13:10:39 GMT 48.482807 16.100031 5,850 106 190 0
2022-12-04 13:10:36 GMT 48.483456 16.096922 5,850 106 190 0
2022-12-04 13:10:32 GMT 48.484528 16.091286 5,850 106 190 0
2022-12-04 13:10:29 GMT 48.485367 16.087236 5,850 106 190 0
2022-12-04 13:10:26 GMT 48.486008 16.083914 5,850 106 190 0
2022-12-04 13:10:23 GMT 48.486855 16.079575 5,850 106 191 64
2022-12-04 13:10:20 GMT 48.487656 16.075815 5,825 107 190 64
2022-12-04 13:10:16 GMT 48.488663 16.070675 5,825 106 192 0
2022-12-04 13:10:13 GMT 48.489510 16.066565 5,850 106 192 -64
2022-12-04 13:10:10 GMT 48.490112 16.063313 5,850 106 192 -64
2022-12-04 13:10:06 GMT 48.491226 16.057858 5,850 107 192 -64
2022-12-04 13:10:02 GMT 48.492210 16.053194 5,850 107 191 64
2022-12-04 13:09:59 GMT 48.492863 16.049940 5,850 107 190 64
2022-12-04 13:09:56 GMT 48.493931 16.044664 5,850 107 191 64
2022-12-04 13:09:53 GMT 48.494816 16.040474 5,850 107 189 64
2022-12-04 13:09:50 GMT 48.495609 16.036642 5,825 107 190 64
2022-12-04 13:09:45 GMT 48.496632 16.031509 5,825 107 191 -64
2022-12-04 13:09:42 GMT 48.497562 16.027172 5,825 106 192 -64
2022-12-04 13:09:39 GMT 48.498074 16.024355 5,825 106 192 -64
2022-12-04 13:09:33 GMT 48.499657 16.015537 5,825 101 194 -64
2022-12-04 13:09:29 GMT 48.500122 16.010695 5,850 94 196 -64
2022-12-04 13:09:24 GMT 48.500172 16.004623 5,850 86 200 0
2022-12-04 13:09:21 GMT 48.499741 15.999333 5,850 78 203 -64
2022-12-04 13:09:18 GMT 48.499374 15.996516 5,850 75 205 -64
2022-12-04 13:09:14 GMT 48.498047 15.990460 5,850 66 210 64
2022-12-04 13:09:11 GMT 48.496864 15.986625 5,850 58 215 128
2022-12-04 13:09:08 GMT 48.495300 15.982643 5,850 55 215 64
2022-12-04 13:09:04 GMT 48.488953 15.973543 5,825 34 226 0
2022-12-04 13:09:00 GMT 48.488953 15.973543 5,850 28 228 -64
2022-12-04 13:08:57 GMT 48.486145 15.971304 5,850 24 230 -64
2022-12-04 13:08:54 GMT 48.483597 15.969784 5,850 11 235 -64
2022-12-04 13:08:51 GMT 48.479267 15.968339 5,850 8 236 -64
2022-12-04 13:08:48 GMT 48.476898 15.967994 5,850 322 242 256
2022-12-04 13:08:44 GMT 48.473122 15.968194 5,850 355 241 -64
2022-12-04 13:08:41 GMT 48.468792 15.969495 5,850 340 243 -64
2022-12-04 13:08:38 GMT 48.466049 15.970952 5,850 338 243 0
2022-12-04 13:08:33 GMT 48.461391 15.974699 5,850 327 243 192
2022-12-04 13:08:30 GMT 48.458450 15.978135 5,825 317 241 256
2022-12-04 13:08:27 GMT 48.456482 15.981023 5,825 310 240 192
2022-12-04 13:08:24 GMT 48.453552 15.986868 5,825 300 236 -64
2022-12-04 13:08:21 GMT 48.452221 15.990601 5,825 295 233 -128
2022-12-04 13:08:18 GMT 48.450916 15.995371 5,825 289 232 -128
2022-12-04 13:08:13 GMT 48.448380 16.006727 5,825 288 232 -64
2022-12-04 13:08:10 GMT 48.448380 16.006727 5,850 288 232 0
2022-12-04 13:08:07 GMT 48.447464 16.011024 5,850 288 232 -64
2022-12-04 13:08:03 GMT 48.446182 16.017221 5,850 288 232 0
2022-12-04 13:07:59 GMT 48.445053 16.022331 5,850 288 231 0
2022-12-04 13:07:55 GMT 48.443436 16.030109 5,825 288 232 64
2022-12-04 13:07:52 GMT 48.442307 16.035414 5,825 288 232 64
2022-12-04 13:07:47 GMT 48.440582 16.043509 5,825 288 233 128
2022-12-04 13:07:44 GMT 48.440002 16.046165 5,825 289 233 64
2022-12-04 13:07:41 GMT 48.438999 16.050810 5,825 289 234 64
2022-12-04 13:07:38 GMT 48.437466 16.057674 5,825 289 235 64
2022-12-04 13:07:34 GMT 48.436207 16.063168 5,825 290 236 -64
2022-12-04 13:07:31 GMT 48.435322 16.066927 5,825 291 236 -128
2022-12-04 13:07:28 GMT 48.434578 16.070036 5,825 291 237 -192
2022-12-04 13:07:25 GMT 48.433369 16.074877 5,850 290 236 -64
2022-12-04 13:07:22 GMT 48.432175 16.079618 5,850 290 236 -64
2022-12-04 13:07:19 GMT 48.430984 16.085112 5,850 286 234 128
2022-12-04 13:07:16 GMT 48.430389 16.088985 5,825 277 230 64
2022-12-04 13:07:13 GMT 48.429970 16.094465 5,825 273 228 64
2022-12-04 13:07:09 GMT 48.430157 16.101259 5,825 262 221 -64
2022-12-04 13:07:05 GMT 48.430939 16.106943 5,850 250 214 -64
2022-12-04 13:07:02 GMT 48.432110 16.111738 5,850 243 209 64
2022-12-04 13:06:59 GMT 48.433456 16.115604 5,825 238 207 64
2022-12-04 13:06:54 GMT 48.435974 16.120918 5,825 232 203 64
2022-12-04 13:06:51 GMT 48.437744 16.123810 5,825 224 198 64
2022-12-04 13:06:48 GMT 48.439980 16.126629 5,825 218 195 64
2022-12-04 13:06:44 GMT 48.443005 16.129663 5,825 212 192 0
2022-12-04 13:06:41 GMT 48.447968 16.132858 5,825 199 186 -64
2022-12-04 13:06:38 GMT 48.447968 16.132858 5,825 198 186 -64
2022-12-04 13:06:35 GMT 48.449936 16.133635 5,825 192 184 0
2022-12-04 13:06:31 GMT 48.453735 16.134480 5,825 183 182 0
2022-12-04 13:06:28 GMT 48.456223 16.134579 5,825 177 181 -64
2022-12-04 13:06:23 GMT 48.461014 16.133705 5,850 167 181 -64
2022-12-04 13:06:20 GMT 48.462833 16.132990 5,850 163 180 -64
2022-12-04 13:06:17 GMT 48.464905 16.131945 5,850 159 180 -64
2022-12-04 13:06:14 GMT 48.467102 16.130465 5,850 153 182 -64
2022-12-04 13:06:11 GMT 48.471958 16.125616 5,850 143 182 -64
2022-12-04 13:06:08 GMT 48.471958 16.125616 5,850 138 183 64
2022-12-04 13:06:04 GMT 48.473877 16.122858 5,850 133 184 64
2022-12-04 13:06:01 GMT 48.475616 16.119831 5,825 126 185 64
2022-12-04 13:05:58 GMT 48.476807 16.117155 5,825 122 186 64
2022-12-04 13:05:55 GMT 48.478477 16.112246 5,825 111 190 -64
2022-12-04 13:05:52 GMT 48.479500 16.108271 5,825 108 191 64
2022-12-04 13:05:48 GMT 48.480385 16.104221 5,825 108 191 64
2022-12-04 13:05:45 GMT 48.481201 16.100464 5,825 107 191 -64
2022-12-04 13:05:42 GMT 48.481979 16.096872 5,850 107 192 64
2022-12-04 13:05:39 GMT 48.482712 16.093281 5,850 107 191 -64
2022-12-04 13:05:36 GMT 48.483719 16.088703 5,850 107 191 0
2022-12-04 13:05:33 GMT 48.484295 16.085936 5,850 107 191 0
2022-12-04 13:05:30 GMT 48.485504 16.080370 5,850 107 192 64
2022-12-04 13:05:27 GMT 48.486328 16.076448 5,850 107 192 64
2022-12-04 13:05:23 GMT 48.487041 16.073215 5,850 108 192 64
2022-12-04 13:05:19 GMT 48.488297 16.067293 5,825 108 193 -64
2022-12-04 13:05:16 GMT 48.489166 16.063278 5,850 108 193 -64
2022-12-04 13:05:13 GMT 48.490173 16.058561 5,850 108 192 -64
2022-12-04 13:05:09 GMT 48.491093 16.054350 5,850 108 191 0
2022-12-04 13:05:06 GMT 48.491959 16.050531 5,850 108 191 64
2022-12-04 13:05:02 GMT 48.493000 16.045677 5,850 108 191 64
2022-12-04 13:04:59 GMT 48.493931 16.041630 5,825 108 191 64
2022-12-04 13:04:56 GMT 48.494751 16.037855 5,825 109 190 64
2022-12-04 13:04:53 GMT 48.496536 16.030251 5,825 109 191 -64
2022-12-04 13:04:49 GMT 48.496536 16.030251 5,825 109 191 -64
2022-12-04 13:04:46 GMT 48.497818 16.024687 5,825 108 191 64
2022-12-04 13:04:43 GMT 48.498539 16.021536 5,825 102 193 0
2022-12-04 13:04:39 GMT 48.499329 16.017572 5,825 101 193 0
2022-12-04 13:04:36 GMT 48.499985 16.012283 5,825 93 196 0
2022-12-04 13:04:33 GMT 48.500122 16.008163 5,825 89 199 0
2022-12-04 13:04:30 GMT 48.500076 16.004261 5,825 82 201 -64
2022-12-04 13:04:26 GMT 48.498589 15.993275 5,850 75 205 -64
2022-12-04 13:04:23 GMT 48.498589 15.993275 5,850 70 207 -64
2022-12-04 13:04:20 GMT 48.497818 15.990178 5,850 66 209 64
2022-12-04 13:04:16 GMT 48.495701 15.984168 5,850 54 216 128
2022-12-04 13:04:12 GMT 48.493652 15.980107 5,825 38 225 0
2022-12-04 13:04:09 GMT 48.491463 15.976868 5,850 41 223 0
2022-12-04 13:04:05 GMT 48.487793 15.972994 5,850 27 230 0
2022-12-04 13:04:01 GMT 48.484634 15.970811 5,850 6 237 -128
2022-12-04 13:03:58 GMT 48.476532 15.968417 5,850 4 238 -128
2022-12-04 13:03:54 GMT 48.476532 15.968417 5,850 0 240 -64
2022-12-04 13:03:50 GMT 48.472332 15.968700 5,850 355 241 -64
2022-12-04 13:03:47 GMT 48.469025 15.969684 5,850 343 242 -64
2022-12-04 13:03:44 GMT 48.464977 15.971880 5,850 336 242 64
2022-12-04 13:03:39 GMT 48.461655 15.974614 5,850 327 242 192
2022-12-04 13:03:35 GMT 48.456642 15.980843 5,825 312 240 256
2022-12-04 13:03:32 GMT 48.454922 15.983951 5,825 307 238 128
2022-12-04 13:03:29 GMT 48.453140 15.988065 5,825 299 235 -128
2022-12-04 13:03:24 GMT 48.450871 15.995443 5,825 290 232 -128
2022-12-04 13:03:21 GMT 48.450031 15.999129 5,825 289 231 -64
2022-12-04 13:03:17 GMT 48.448471 16.006165 5,850 288 232 -64
2022-12-04 13:03:14 GMT 48.447659 16.010117 5,850 288 232 -64
2022-12-04 13:03:11 GMT 48.446354 16.016258 5,850 288 230 -64
2022-12-04 13:03:08 GMT 48.445705 16.019295 5,850 288 231 -64
2022-12-04 13:03:05 GMT 48.444855 16.023277 5,850 288 231 0
2022-12-04 13:03:02 GMT 48.443802 16.028067 5,850 288 231 64
2022-12-04 13:02:58 GMT 48.442398 16.034618 5,825 288 231 128
2022-12-04 13:02:54 GMT 48.441093 16.040689 5,825 288 231 64
2022-12-04 13:02:51 GMT 48.439930 16.046110 5,825 289 231 64
2022-12-04 13:02:46 GMT 48.437325 16.058037 5,825 289 233 64
2022-12-04 13:02:43 GMT 48.437325 16.058037 5,825 289 233 64
2022-12-04 13:02:39 GMT 48.434765 16.069096 5,825 290 234 -64
2022-12-04 13:02:36 GMT 48.434765 16.069096 5,825 291 235 -192
2022-12-04 13:02:33 GMT 48.433834 16.072926 5,825 291 235 -192
2022-12-04 13:02:30 GMT 48.432724 16.077364 5,825 281 231 64
2022-12-04 13:02:25 GMT 48.431042 16.085140 5,825 285 233 128
2022-12-04 13:02:20 GMT 48.430061 16.092657 5,825 262 220 0
2022-12-04 13:02:17 GMT 48.429977 16.097364 5,825 267 223 64
2022-12-04 13:02:12 GMT 48.431412 16.108919 5,825 256 217 0
2022-12-04 13:02:09 GMT 48.431412 16.108919 5,825 238 206 64
2022-12-04 13:02:04 GMT 48.433502 16.115604 5,825 238 206 64
2022-12-04 13:02:00 GMT 48.436157 16.121168 5,825 228 200 64
2022-12-04 13:01:57 GMT 48.438171 16.124338 5,825 223 197 0
2022-12-04 13:01:54 GMT 48.439545 16.126099 5,825 214 191 -64
2022-12-04 13:01:51 GMT 48.442520 16.129196 5,825 209 190 -64
2022-12-04 13:01:48 GMT 48.444077 16.130465 5,825 200 187 0
2022-12-04 13:01:45 GMT 48.447281 16.132507 5,825 198 186 0
2022-12-04 13:01:42 GMT 48.448917 16.133278 5,850 193 185 0
2022-12-04 13:01:39 GMT 48.451584 16.134127 5,850 186 183 0
2022-12-04 13:01:36 GMT 48.453964 16.134480 5,850 184 183 0
2022-12-04 13:01:32 GMT 48.457806 16.134436 5,825 173 183 0
2022-12-04 13:01:28 GMT 48.460648 16.133844 5,825 168 182 -64
2022-12-04 13:01:24 GMT 48.464092 16.132410 5,850 159 182 -64
2022-12-04 13:01:19 GMT 48.468521 16.129269 5,850 149 182 -64
2022-12-04 13:01:15 GMT 48.470306 16.127579 5,850 144 183 -64
2022-12-04 13:01:11 GMT 48.473694 16.123211 5,850 133 185 64
2022-12-04 13:01:06 GMT 48.476349 16.118353 5,825 122 188 64
2022-12-04 13:01:02 GMT 48.478432 16.112534 5,825 113 189 -64
2022-12-04 13:00:58 GMT 48.479233 16.109407 5,850 109 191 -64
2022-12-04 13:00:53 GMT 48.480743 16.102716 5,825 107 192 64
2022-12-04 13:00:49 GMT 48.481705 16.098068 5,850 107 192 0
2022-12-04 13:00:45 GMT 48.482853 16.092730 5,850 107 192 -64
2022-12-04 13:00:41 GMT 48.483902 16.087929 5,850 107 192 0
2022-12-04 13:00:38 GMT 48.484909 16.083351 5,850 107 192 64
2022-12-04 13:00:33 GMT 48.486191 16.077225 5,850 108 192 0
2022-12-04 13:00:30 GMT 48.487041 16.073359 5,850 108 192 0
2022-12-04 13:00:27 GMT 48.487747 16.070040 5,850 108 193 0
2022-12-04 13:00:24 GMT 48.488533 16.066347 5,850 108 192 -64
2022-12-04 13:00:21 GMT 48.489555 16.061649 5,850 108 191 0
2022-12-04 13:00:18 GMT 48.490311 16.058350 5,850 108 192 0
2022-12-04 13:00:15 GMT 48.491325 16.053555 5,850 108 191 -64
2022-12-04 13:00:12 GMT 48.491867 16.051237 5,850 108 191 -64
2022-12-04 13:00:07 GMT 48.493423 16.044125 5,850 108 190 64
2022-12-04 13:00:04 GMT 48.494259 16.040400 5,825 109 190 64
2022-12-04 13:00:00 GMT 48.495377 16.035702 5,825 109 189 0
2022-12-04 12:59:57 GMT 48.496307 16.031588 5,825 109 190 0
2022-12-04 12:59:52 GMT 48.497562 16.026306 5,825 109 190 0
2022-12-04 12:59:49 GMT 48.498447 16.022549 5,825 99 193 -64
2022-12-04 12:59:46 GMT 48.499378 16.018211 5,825 100 193 0
2022-12-04 12:59:43 GMT 48.500015 16.013842 5,825 98 194 -64
2022-12-04 12:59:39 GMT 48.500401 16.007586 5,825 91 197 -64
2022-12-04 12:59:36 GMT 48.500381 16.004967 5,825 87 199 -64
2022-12-04 12:59:32 GMT 48.499798 15.997467 5,850 79 204 -64
2022-12-04 12:59:28 GMT 48.499100 15.993058 5,850 72 207 0
2022-12-04 12:59:25 GMT 48.497841 15.988071 5,850 66 211 64
2022-12-04 12:59:21 GMT 48.496536 15.984262 5,850 58 215 64
2022-12-04 12:59:18 GMT 48.494816 15.980482 5,850 50 220 0
2022-12-04 12:59:15 GMT 48.492489 15.976723 5,850 42 225 64
2022-12-04 12:59:11 GMT 48.489182 15.972892 5,850 16 236 -64
2022-12-04 12:59:07 GMT 48.486156 15.970507 5,850 23 233 -64
2022-12-04 12:59:04 GMT 48.482899 15.968700 5,850 16 236 -64
2022-12-04 12:59:01 GMT 48.478848 15.967544 5,850 5 240 -64
2022-12-04 12:58:58 GMT 48.475525 15.967290 5,850 345 242 -128
2022-12-04 12:58:54 GMT 48.472191 15.967688 5,850 353 241 -128
2022-12-04 12:58:51 GMT 48.467442 15.969495 5,850 340 242 -64
2022-12-04 12:58:47 GMT 48.464310 15.971515 5,850 329 242 128
2022-12-04 12:58:44 GMT 48.461857 15.973615 5,850 326 242 192
2022-12-04 12:58:41 GMT 48.459091 15.976656 5,850 320 241 192
2022-12-04 12:58:38 GMT 48.453918 15.985600 5,825 309 239 256
2022-12-04 12:58:34 GMT 48.453918 15.985600 5,825 300 236 0
2022-12-04 12:58:31 GMT 48.452362 15.989878 5,825 293 234 -64
2022-12-04 12:58:28 GMT 48.450825 15.995443 5,825 290 232 -64
2022-12-04 12:58:25 GMT 48.449894 15.999635 5,825 288 231 -64
2022-12-04 12:58:22 GMT 48.448883 16.004333 5,825 288 230 -64
2022-12-04 12:58:19 GMT 48.448078 16.008163 5,825 288 230 -64
2022-12-04 12:58:16 GMT 48.447102 16.012573 5,850 288 229 -64
2022-12-04 12:58:13 GMT 48.446136 16.017151 5,850 288 229 -64
2022-12-04 12:58:09 GMT 48.444580 16.024475 5,850 288 229 -64
2022-12-04 12:58:05 GMT 48.443161 16.031164 5,850 288 229 64
2022-12-04 12:58:02 GMT 48.442307 16.035124 5,825 288 230 64
2022-12-04 12:57:59 GMT 48.441422 16.039389 5,825 288 230 128
2022-12-04 12:57:56 GMT 48.440414 16.043842 5,825 289 231 128
2022-12-04 12:57:52 GMT 48.438950 16.050743 5,825 289 231 128
2022-12-04 12:57:48 GMT 48.437927 16.055433 5,825 289 231 128
2022-12-04 12:57:45 GMT 48.436340 16.062506 5,825 290 233 -64
2022-12-04 12:57:42 GMT 48.435696 16.065264 5,825 290 232 -128
2022-12-04 12:57:39 GMT 48.434464 16.070393 5,825 291 233 -192
2022-12-04 12:57:36 GMT 48.433506 16.074299 5,850 289 232 64
2022-12-04 12:57:33 GMT 48.432404 16.078915 5,850 290 232 -64
2022-12-04 12:57:30 GMT 48.431087 16.084852 5,825 279 228 0
2022-12-04 12:57:26 GMT 48.430252 16.090816 5,825 262 220 -64
2022-12-04 12:57:23 GMT 48.430061 16.093452 5,825 273 225 0
2022-12-04 12:57:19 GMT 48.430252 16.101379 5,825 261 218 0
2022-12-04 12:57:14 GMT 48.431580 16.109407 5,825 245 209 -64
2022-12-04 12:57:10 GMT 48.432575 16.113041 5,825 242 208 -64
2022-12-04 12:57:07 GMT 48.434006 16.116802 5,825 239 206 0
2022-12-04 12:57:04 GMT 48.436295 16.121380 5,825 229 201 0
2022-12-04 12:57:00 GMT 48.438488 16.124748 5,825 221 196 0
2022-12-04 12:56:56 GMT 48.442024 16.128725 5,825 211 192 0
2022-12-04 12:56:53 GMT 48.444351 16.130676 5,825 206 190 -64
2022-12-04 12:56:48 GMT 48.447426 16.132557 5,850 198 187 -64
2022-12-04 12:56:45 GMT 48.450943 16.133917 5,850 185 185 0
2022-12-04 12:56:42 GMT 48.452682 16.134268 5,850 186 185 0
2022-12-04 12:56:39 GMT 48.455620 16.134506 5,850 176 184 0
2022-12-04 12:56:36 GMT 48.457809 16.134338 5,850 172 182 0
2022-12-04 12:56:33 GMT 48.460693 16.133713 5,850 166 184 0
2022-12-04 12:56:30 GMT 48.463020 16.132845 5,850 162 183 0
2022-12-04 12:56:27 GMT 48.465210 16.131617 5,850 154 183 -64
2022-12-04 12:56:24 GMT 48.467491 16.130026 5,850 151 183 -64
2022-12-04 12:56:20 GMT 48.470657 16.126989 5,850 142 184 0
2022-12-04 12:56:15 GMT 48.473869 16.122726 5,825 131 185 64
2022-12-04 12:56:12 GMT 48.475544 16.119762 5,825 127 187 64
2022-12-04 12:56:08 GMT 48.477356 16.115604 5,825 116 190 -64
2022-12-04 12:56:05 GMT 48.478523 16.112101 5,825 111 191 -64
2022-12-04 12:56:01 GMT 48.479691 16.107435 5,825 108 192 -64
2022-12-04 12:55:57 GMT 48.480789 16.102365 5,850 107 192 0
2022-12-04 12:55:54 GMT 48.481888 16.097296 5,850 107 192 0
2022-12-04 12:55:51 GMT 48.482437 16.094547 5,850 107 192 0
2022-12-04 12:55:47 GMT 48.483673 16.088915 5,850 107 192 64
2022-12-04 12:55:44 GMT 48.484203 16.086296 5,850 107 192 0
2022-12-04 12:55:41 GMT 48.485229 16.081732 5,850 107 192 0
2022-12-04 12:55:38 GMT 48.486950 16.073576 5,825 107 191 64
2022-12-04 12:55:35 GMT 48.486950 16.073576 5,825 107 191 0
2022-12-04 12:55:32 GMT 48.487518 16.071026 5,825 107 191 0
2022-12-04 12:55:29 GMT 48.488670 16.065699 5,850 107 191 -64
2022-12-04 12:55:26 GMT 48.489323 16.062662 5,850 108 191 -64
2022-12-04 12:55:21 GMT 48.490814 16.055885 5,850 108 190 0
2022-12-04 12:55:17 GMT 48.491791 16.051458 5,850 108 190 0
2022-12-04 12:55:13 GMT 48.493095 16.045532 5,850 108 189 64
2022-12-04 12:55:10 GMT 48.493698 16.043001 5,825 108 189 64
2022-12-04 12:55:07 GMT 48.494396 16.039822 5,825 108 189 64
2022-12-04 12:55:04 GMT 48.495514 16.034836 5,825 109 189 64
2022-12-04 12:55:01 GMT 48.496120 16.032377 5,825 109 189 -64
2022-12-04 12:54:58 GMT 48.497223 16.027643 5,825 109 190 -64
2022-12-04 12:54:54 GMT 48.498447 16.022331 5,850 107 191 64
2022-12-04 12:54:51 GMT 48.498959 16.019800 5,825 106 191 64
2022-12-04 12:54:47 GMT 48.499844 16.014597 5,825 95 196 0
2022-12-04 12:54:44 GMT 48.500309 16.008093 5,825 92 198 0
2022-12-04 12:54:41 GMT 48.500336 16.006165 5,850 83 203 -64
2022-12-04 12:54:38 GMT 48.499969 16.000109 5,850 80 204 -64
2022-12-04 12:54:32 GMT 48.498634 15.991902 5,850 70 209 64
2022-12-04 12:54:28 GMT 48.497406 15.987361 5,850 57 217 0
2022-12-04 12:54:25 GMT 48.495655 15.982867 5,850 44 224 64
2022-12-04 12:54:21 GMT 48.493378 15.978840 5,850 45 224 64
2022-12-04 12:54:17 GMT 48.490631 15.975177 5,850 31 231 0
2022-12-04 12:54:14 GMT 48.487831 15.972531 5,850 22 234 0
2022-12-04 12:54:11 GMT 48.484451 15.970248 5,850 18 236 64
2022-12-04 12:54:06 GMT 48.478615 15.968267 5,825 4 240 192
2022-12-04 12:54:02 GMT 48.474613 15.968122 5,825 355 242 64
2022-12-04 12:53:59 GMT 48.471268 15.968698 5,825 350 243 -64
2022-12-04 12:53:55 GMT 48.467537 15.970146 5,825 343 243 -128
2022-12-04 12:53:51 GMT 48.462185 15.973977 5,825 329 242 64
2022-12-04 12:53:47 GMT 48.459778 15.976445 5,825 296 234 -64
2022-12-04 12:53:44 GMT 48.456642 15.980771 5,800 312 239 256
2022-12-04 12:53:41 GMT 48.454781 15.984096 5,800 304 237 192
2022-12-04 12:53:38 GMT 48.452965 15.988360 5,800 294 233 -64
2022-12-04 12:53:35 GMT 48.451584 15.992784 5,800 290 231 -64
2022-12-04 12:53:32 GMT 48.449615 16.001009 5,800 289 230 -64
2022-12-04 12:53:29 GMT 48.449615 16.001009 5,800 289 231 -64
2022-12-04 12:53:26 GMT 48.448448 16.006502 5,800 288 231 -64
2022-12-04 12:53:23 GMT 48.447464 16.011093 5,800 288 231 -64
2022-12-04 12:53:20 GMT 48.446411 16.015953 5,800 288 231 -64
2022-12-04 12:53:16 GMT 48.445358 16.020742 5,800 288 231 -64
2022-12-04 12:53:13 GMT 48.444214 16.026236 5,800 283 230 128
2022-12-04 12:53:10 GMT 48.443050 16.031582 5,800 288 230 64
2022-12-04 12:53:06 GMT 48.441696 16.037996 5,800 288 230 64
2022-12-04 12:53:03 GMT 48.440815 16.041918 5,800 288 230 64
2022-12-04 12:53:00 GMT 48.440025 16.045605 5,800 289 229 64
2022-12-04 12:52:57 GMT 48.437881 16.055290 5,800 289 230 128
2022-12-04 12:52:54 GMT 48.437881 16.055290 5,800 289 231 128
2022-12-04 12:52:51 GMT 48.436981 16.059265 5,800 289 231 64
2022-12-04 12:52:48 GMT 48.435883 16.064123 5,800 290 231 -64
2022-12-04 12:52:45 GMT 48.434669 16.069311 5,800 291 233 -192
2022-12-04 12:52:42 GMT 48.433784 16.072926 5,800 291 233 -192
2022-12-04 12:52:39 GMT 48.432495 16.078138 5,825 290 233 -64
2022-12-04 12:52:35 GMT 48.431168 16.084408 5,800 284 230 128
2022-12-04 12:52:32 GMT 48.430435 16.088703 5,800 275 225 64
2022-12-04 12:52:29 GMT 48.429932 16.095041 5,800 273 225 64
2022-12-04 12:52:24 GMT 48.430107 16.100319 5,800 263 220 -64
2022-12-04 12:52:21 GMT 48.431625 16.109901 5,800 252 214 -64
2022-12-04 12:52:18 GMT 48.431625 16.109901 5,800 244 209 -64
2022-12-04 12:52:15 GMT 48.433090 16.114691 5,800 240 207 -64
2022-12-04 12:52:12 GMT 48.434624 16.118389 5,800 235 205 0
2022-12-04 12:52:08 GMT 48.436581 16.122004 5,800 226 200 0
2022-12-04 12:52:04 GMT 48.439278 16.125906 5,800 213 195 0
2022-12-04 12:52:01 GMT 48.441467 16.128283 5,800 211 193 0
2022-12-04 12:51:58 GMT 48.443985 16.130465 5,800 206 191 0
2022-12-04 12:51:55 GMT 48.446869 16.132296 5,800 200 189 64
2022-12-04 12:51:52 GMT 48.448730 16.133205 5,800 196 188 64
2022-12-04 12:51:49 GMT 48.452080 16.134218 5,800 189 185 0
2022-12-04 12:51:45 GMT 48.454376 16.134550 5,800 178 184 0
2022-12-04 12:51:42 GMT 48.457443 16.134409 5,800 172 183 0
2022-12-04 12:51:39 GMT 48.459949 16.133928 5,800 166 182 0
2022-12-04 12:51:36 GMT 48.464355 16.132086 5,800 162 182 0
2022-12-04 12:51:33 GMT 48.464355 16.132086 5,800 156 182 0
2022-12-04 12:51:30 GMT 48.467102 16.130255 5,800 150 182 -64
2022-12-04 12:51:27 GMT 48.472008 16.125256 5,800 107 191 0
2022-12-04 12:51:24 GMT 48.472008 16.125256 5,800 139 183 -64
2022-12-04 12:51:21 GMT 48.473495 16.123159 5,800 133 183 0
2022-12-04 12:51:17 GMT 48.475388 16.119831 5,800 126 185 128
2022-12-04 12:51:13 GMT 48.477310 16.115536 5,800 114 189 -64
2022-12-04 12:51:09 GMT 48.478756 16.111017 5,800 109 190 -64
2022-12-04 12:51:06 GMT 48.479691 16.107294 5,800 109 190 0
2022-12-04 12:51:03 GMT 48.480526 16.103500 5,800 107 191 0
2022-12-04 12:51:00 GMT 48.481339 16.099689 5,800 108 190 0
2022-12-04 12:50:57 GMT 48.482346 16.095112 5,800 108 190 0
2022-12-04 12:50:54 GMT 48.482895 16.092575 5,800 108 190 0
2022-12-04 12:50:51 GMT 48.483738 16.088682 5,800 108 190 0
2022-12-04 12:50:48 GMT 48.484760 16.083912 5,800 108 190 0
2022-12-04 12:50:45 GMT 48.485733 16.079336 5,800 108 190 0
2022-12-04 12:50:42 GMT 48.486576 16.075600 5,800 108 190 0
2022-12-04 12:50:38 GMT 48.487228 16.072563 5,800 108 190 0
2022-12-04 12:50:35 GMT 48.488533 16.066492 5,800 108 191 0
2022-12-04 12:50:32 GMT 48.488998 16.064468 5,800 108 191 0
2022-12-04 12:50:28 GMT 48.490395 16.058109 5,800 108 191 -64
2022-12-04 12:50:25 GMT 48.490997 16.055363 5,800 108 191 0
2022-12-04 12:50:22 GMT 48.491791 16.051821 5,800 108 191 64
2022-12-04 12:50:19 GMT 48.492722 16.047773 5,800 109 190 64
2022-12-04 12:50:16 GMT 48.493885 16.042713 5,800 109 190 64
2022-12-04 12:50:12 GMT 48.494843 16.038420 5,800 109 190 64
2022-12-04 12:50:07 GMT 48.496353 16.032087 5,800 109 191 0
2022-12-04 12:50:04 GMT 48.497360 16.027925 5,800 110 191 -64
2022-12-04 12:49:58 GMT 48.499985 16.015898 5,800 106 191 64
2022-12-04 12:49:54 GMT 48.499985 16.015898 5,800 99 195 64
2022-12-04 12:49:51 GMT 48.500427 16.012432 5,800 97 196 0
2022-12-04 12:49:48 GMT 48.500683 16.008453 5,825 82 203 -192
2022-12-04 12:49:43 GMT 48.500610 16.001305 5,825 80 204 -128
2022-12-04 12:49:38 GMT 48.499844 15.994287 5,825 71 209 128
2022-12-04 12:49:34 GMT 48.498871 15.989474 5,800 60 216 128
2022-12-04 12:49:31 GMT 48.497223 15.984051 5,800 57 217 64
2022-12-04 12:49:28 GMT 48.495792 15.980771 5,800 21 235 -64
2022-12-04 12:49:23 GMT 48.492348 15.975350 5,800 34 230 0
2022-12-04 12:49:20 GMT 48.487370 15.970507 5,800 21 235 -64
2022-12-04 12:49:17 GMT 48.487370 15.970507 5,800 21 235 -64
2022-12-04 12:49:13 GMT 48.482342 15.967833 5,825 0 243 -64
2022-12-04 12:49:08 GMT 48.476257 15.966797 5,825 0 243 -64
2022-12-04 12:49:05 GMT 48.473774 15.966966 5,825 355 244 -64
2022-12-04 12:49:02 GMT 48.470901 15.967642 5,825 346 244 0
2022-12-04 12:48:59 GMT 48.467789 15.968910 5,825 336 244 64
2022-12-04 12:48:56 GMT 48.463673 15.971664 5,825 330 242 128
2022-12-04 12:48:52 GMT 48.460835 15.974338 5,825 322 241 192
2022-12-04 12:48:49 GMT 48.457760 15.978241 5,800 311 239 256
2022-12-04 12:48:45 GMT 48.454735 15.983590 5,800 300 236 64
2022-12-04 12:48:42 GMT 48.453140 15.987502 5,800 295 234 0
2022-12-04 12:48:39 GMT 48.451569 15.992624 5,800 292 233 -64
2022-12-04 12:48:36 GMT 48.450779 15.995660 5,800 290 231 -64
2022-12-04 12:48:33 GMT 48.449429 16.001804 5,800 288 231 -64
2022-12-04 12:48:30 GMT 48.447556 16.010672 5,800 288 231 -64
2022-12-04 12:48:27 GMT 48.447556 16.010672 5,800 288 230 -64
2022-12-04 12:48:21 GMT 48.445862 16.018559 5,800 288 229 -64
2022-12-04 12:48:18 GMT 48.444763 16.023630 5,800 288 229 -64
2022-12-04 12:48:14 GMT 48.443607 16.029125 5,800 288 228 0
2022-12-04 12:48:11 GMT 48.442429 16.034546 5,800 289 229 64
2022-12-04 12:48:08 GMT 48.441467 16.039099 5,800 289 229 64
2022-12-04 12:48:05 GMT 48.440304 16.044231 5,800 289 229 64
2022-12-04 12:48:01 GMT 48.437977 16.054928 5,800 289 229 64
2022-12-04 12:47:57 GMT 48.437977 16.054928 5,800 289 229 128
2022-12-04 12:47:54 GMT 48.436718 16.060711 5,800 290 230 64
2022-12-04 12:47:50 GMT 48.435699 16.065041 5,800 290 232 -128
2022-12-04 12:47:47 GMT 48.434418 16.070463 5,800 291 233 -256
2022-12-04 12:47:44 GMT 48.433041 16.076105 5,800 290 231 -128
2022-12-04 12:47:41 GMT 48.431923 16.080660 5,825 289 233 64
2022-12-04 12:47:38 GMT 48.430157 16.091211 5,800 281 230 64
2022-12-04 12:47:34 GMT 48.430157 16.091211 5,800 277 226 64
2022-12-04 12:47:31 GMT 48.429932 16.096590 5,800 269 224 0
2022-12-04 12:47:27 GMT 48.430202 16.101837 5,800 257 217 -64
2022-12-04 12:47:24 GMT 48.431179 16.107908 5,800 253 215 -64
2022-12-04 12:47:21 GMT 48.431717 16.110252 5,800 249 212 -64
2022-12-04 12:47:17 GMT 48.433365 16.115463 5,800 239 207 0
2022-12-04 12:47:13 GMT 48.435509 16.120195 5,800 224 199 0
2022-12-04 12:47:10 GMT 48.437649 16.123737 5,800 224 199 0
2022-12-04 12:47:07 GMT 48.441700 16.128508 5,800 214 193 0
2022-12-04 12:47:04 GMT 48.441700 16.128508 5,800 214 193 0
2022-12-04 12:47:00 GMT 48.445797 16.131687 5,800 203 189 -64
2022-12-04 12:46:56 GMT 48.447830 16.132790 5,800 194 186 0
2022-12-04 12:46:53 GMT 48.450256 16.133705 5,800 194 186 0
2022-12-04 12:46:50 GMT 48.455292 16.134550 5,800 182 183 0
2022-12-04 12:46:47 GMT 48.455292 16.134550 5,800 176 182 0
2022-12-04 12:46:44 GMT 48.461334 16.133493 5,800 168 180 0
2022-12-04 12:46:40 GMT 48.461334 16.133493 5,800 164 181 0
2022-12-04 12:46:37 GMT 48.464046 16.132265 5,800 160 181 0
2022-12-04 12:46:33 GMT 48.467396 16.130026 5,800 150 181 -64
2022-12-04 12:46:29 GMT 48.469849 16.127789 5,800 142 182 -64
2022-12-04 12:46:26 GMT 48.472099 16.125183 5,800 136 183 -64
2022-12-04 12:46:22 GMT 48.474285 16.121931 5,800 131 183 64
2022-12-04 12:46:19 GMT 48.477036 16.116310 5,800 124 186 128
2022-12-04 12:46:16 GMT 48.478432 16.112318 5,800 119 188 64
2022-12-04 12:46:13 GMT 48.478432 16.112318 5,800 114 189 -64
2022-12-04 12:46:08 GMT 48.480015 16.105885 5,800 107 191 0
2022-12-04 12:46:04 GMT 48.481361 16.099813 5,800 107 191 0
2022-12-04 12:46:01 GMT 48.481781 16.097645 5,800 107 191 -64
2022-12-04 12:45:58 GMT 48.483810 16.088280 5,800 107 191 -64
2022-12-04 12:45:55 GMT 48.483810 16.088280 5,800 107 191 64
2022-12-04 12:45:51 GMT 48.484760 16.083912 5,800 107 191 0
2022-12-04 12:45:48 GMT 48.485458 16.080673 5,800 107 191 0
2022-12-04 12:45:45 GMT 48.486156 16.077408 5,800 107 191 -64
2022-12-04 12:45:42 GMT 48.487415 16.071552 5,825 108 191 0
2022-12-04 12:45:38 GMT 48.488300 16.067577 5,800 108 192 0
2022-12-04 12:45:35 GMT 48.489120 16.063843 5,825 108 193 -64
2022-12-04 12:45:31 GMT 48.490299 16.058542 5,825 108 193 64
2022-12-04 12:45:28 GMT 48.491184 16.054277 5,800 108 193 0
2022-12-04 12:45:23 GMT 48.492676 16.047701 5,800 108 193 64
2022-12-04 12:45:19 GMT 48.493423 16.044334 5,800 108 193 64
2022-12-04 12:45:16 GMT 48.494583 16.039026 5,800 108 192 64
2022-12-04 12:45:13 GMT 48.495514 16.035051 5,800 109 193 -64
2022-12-04 12:45:10 GMT 48.496353 16.031439 5,800 108 193 0
2022-12-04 12:45:06 GMT 48.497223 16.027575 5,800 109 193 -64
2022-12-04 12:45:03 GMT 48.498215 16.023270 5,800 109 193 -64
2022-12-04 12:44:59 GMT 48.499329 16.018419 5,800 108 193 -64
2022-12-04 12:44:55 GMT 48.500565 16.012924 5,800 104 194 -64
2022-12-04 12:44:52 GMT 48.501251 16.008699 5,825 102 195 -64
2022-12-04 12:44:49 GMT 48.501709 16.004826 5,825 98 197 -64
2022-12-04 12:44:45 GMT 48.501892 15.993998 5,800 86 203 64
2022-12-04 12:44:42 GMT 48.501892 15.993998 5,800 85 203 0
2022-12-04 12:44:38 GMT 48.501663 15.990882 5,800 80 206 -64
2022-12-04 12:44:34 GMT 48.500683 15.984457 5,825 74 209 -64
2022-12-04 12:44:31 GMT 48.499603 15.979544 5,825 67 213 -64
2022-12-04 12:44:26 GMT 48.497608 15.973254 5,825 59 219 128
2022-12-04 12:44:23 GMT 48.496170 15.969896 5,825 55 221 192
2022-12-04 12:44:19 GMT 48.492920 15.964262 5,800 29 234 128
2022-12-04 12:44:16 GMT 48.490719 15.961545 5,800 29 234 128
2022-12-04 12:44:13 GMT 48.487507 15.958581 5,800 16 239 0
2022-12-04 12:44:09 GMT 48.483536 15.956233 5,800 14 240 -64
2022-12-04 12:44:04 GMT 48.474426 15.954613 5,825 347 257 -128
2022-12-04 12:44:01 GMT 48.474426 15.954613 5,825 356 251 -256
2022-12-04 12:43:56 GMT 48.468933 15.955951 5,825 346 257 -128
2022-12-04 12:43:53 GMT 48.466328 15.957136 5,825 341 258 -128
2022-12-04 12:43:50 GMT 48.462616 15.959543 5,825 332 259 -64
2022-12-04 12:43:47 GMT 48.459854 15.961978 5,825 323 258 128
2022-12-04 12:43:44 GMT 48.456253 15.966163 5,825 316 256 256
2022-12-04 12:43:38 GMT 48.452034 15.973181 5,800 305 254 192
2022-12-04 12:43:35 GMT 48.450119 15.977783 5,800 295 250 -64
2022-12-04 12:43:32 GMT 48.446774 15.990167 5,800 290 247 -64
2022-12-04 12:43:29 GMT 48.446774 15.990167 5,800 289 247 0
2022-12-04 12:43:25 GMT 48.446091 15.993488 5,800 288 246 0
2022-12-04 12:43:22 GMT 48.444588 16.000429 5,800 288 246 0
2022-12-04 12:43:18 GMT 48.443375 16.006140 5,800 288 246 -64
2022-12-04 12:43:15 GMT 48.442154 16.011799 5,800 288 245 -64
2022-12-04 12:43:12 GMT 48.441002 16.017344 5,800 288 245 -64
2022-12-04 12:43:08 GMT 48.439682 16.023489 5,800 288 244 -64
2022-12-04 12:43:05 GMT 48.438858 16.027433 5,800 288 244 0
2022-12-04 12:43:02 GMT 48.436996 16.036207 5,800 288 244 64
2022-12-04 12:42:59 GMT 48.436996 16.036207 5,800 289 245 64
2022-12-04 12:42:56 GMT 48.435516 16.042997 5,800 289 245 128
2022-12-04 12:42:53 GMT 48.434624 16.047195 5,800 288 246 128
2022-12-04 12:42:50 GMT 48.433739 16.051170 5,800 289 246 64
2022-12-04 12:42:47 GMT 48.432678 16.055956 5,800 289 246 64
2022-12-04 12:42:44 GMT 48.431553 16.061001 5,800 290 248 0
2022-12-04 12:42:41 GMT 48.430435 16.065626 5,800 290 248 -64
2022-12-04 12:42:38 GMT 48.429428 16.069830 5,800 291 249 -128
2022-12-04 12:42:35 GMT 48.427734 16.076685 5,800 289 249 -64
2022-12-04 12:42:32 GMT 48.426571 16.081961 5,800 288 247 64
2022-12-04 12:42:29 GMT 48.425766 16.086308 5,800 283 246 64
2022-12-04 12:42:26 GMT 48.425308 16.089689 5,800 279 244 0
2022-12-04 12:42:23 GMT 48.425034 16.094538 5,800 268 239 0
2022-12-04 12:42:20 GMT 48.425171 16.100393 5,800 251 229 0
2022-12-04 12:42:17 GMT 48.425777 16.105740 5,800 254 232 0
2022-12-04 12:42:14 GMT 48.426727 16.110535 5,800 248 228 0
2022-12-04 12:42:11 GMT 48.428200 16.115498 5,800 108 209 0
2022-12-04 12:42:08 GMT 48.429459 16.118750 5,800 235 221 -64
2022-12-04 12:42:04 GMT 48.431808 16.123423 5,800 222 213 64
2022-12-04 12:42:01 GMT 48.434006 16.126802 5,800 223 214 64
2022-12-04 12:41:57 GMT 48.437557 16.131039 5,800 214 208 0
2022-12-04 12:41:53 GMT 48.440048 16.133211 5,800 207 207 64
2022-12-04 12:41:50 GMT 48.442307 16.134796 5,800 201 204 64
2022-12-04 12:41:46 GMT 48.446636 16.136892 5,800 193 201 64
2022-12-04 12:41:43 GMT 48.449566 16.137688 5,800 187 200 0
2022-12-04 12:41:40 GMT 48.451427 16.137976 5,800 174 197 -64
2022-12-04 12:41:35 GMT 48.456551 16.137688 5,800 171 198 -64
2022-12-04 12:41:32 GMT 48.458908 16.137156 5,800 167 198 -64
2022-12-04 12:41:29 GMT 48.461334 16.136169 5,825 108 209 0
2022-12-04 12:41:25 GMT 48.465069 16.134001 5,825 151 199 -128
2022-12-04 12:41:22 GMT 48.467560 16.132013 5,825 148 200 -64
2022-12-04 12:41:19 GMT 48.469540 16.130026 5,825 129 203 128
2022-12-04 12:41:15 GMT 48.472778 16.125887 5,825 131 202 128
2022-12-04 12:41:12 GMT 48.474659 16.122726 5,800 125 205 128
2022-12-04 12:41:09 GMT 48.476074 16.119761 5,800 125 205 128
2022-12-04 12:41:05 GMT 48.478149 16.113764 5,800 111 208 -64
2022-12-04 12:41:02 GMT 48.479919 16.106607 5,800 108 209 -64
2022-12-04 12:40:59 GMT 48.479919 16.106607 5,800 108 209 -64
2022-12-04 12:40:55 GMT 48.481361 16.099958 5,800 108 209 64
2022-12-04 12:40:52 GMT 48.482117 16.096451 5,800 108 209 0
2022-12-04 12:40:49 GMT 48.483273 16.091068 5,800 108 209 0
2022-12-04 12:40:45 GMT 48.484406 16.085886 5,825 108 209 -64
2022-12-04 12:40:42 GMT 48.485367 16.081598 5,825 108 209 -64
2022-12-04 12:40:39 GMT 48.486008 16.078632 5,825 108 209 -64
2022-12-04 12:40:35 GMT 48.487694 16.070974 5,800 108 209 64
2022-12-04 12:40:32 GMT 48.488480 16.067364 5,800 108 210 64
2022-12-04 12:40:29 GMT 48.489120 16.064617 5,800 108 210 64
2022-12-04 12:40:26 GMT 48.490952 16.056236 5,800 109 208 64
2022-12-04 12:40:23 GMT 48.490952 16.056236 5,825 108 209 -64
2022-12-04 12:40:19 GMT 48.492233 16.050673 5,825 109 208 64
2022-12-04 12:40:16 GMT 48.493420 16.045460 5,800 109 208 64
2022-12-04 12:40:13 GMT 48.494164 16.042135 5,800 109 207 64
2022-12-04 12:40:09 GMT 48.495701 16.035559 5,800 109 208 64
2022-12-04 12:40:04 GMT 48.496910 16.030643 5,800 110 208 0
2022-12-04 12:40:01 GMT 48.498047 16.025953 5,800 111 208 -128
2022-12-04 12:39:58 GMT 48.498917 16.022644 5,800 111 208 -128
2022-12-04 12:39:55 GMT 48.500290 16.017221 5,800 106 211 64
2022-12-04 12:39:51 GMT 48.501617 16.011728 5,800 106 211 64
2022-12-04 12:39:48 GMT 48.502357 16.008093 5,800 104 211 0
2022-12-04 12:39:44 GMT 48.503128 16.002573 5,825 99 213 -64
2022-12-04 12:39:41 GMT 48.503540 15.996587 5,825 92 217 -64
2022-12-04 12:39:38 GMT 48.503567 15.993347 5,825 87 219 -64
2022-12-04 12:39:35 GMT 48.503334 15.987709 5,825 83 221 128
2022-12-04 12:39:32 GMT 48.502899 15.983910 5,825 79 223 128
2022-12-04 12:39:29 GMT 48.502121 15.979473 5,825 69 228 64
2022-12-04 12:39:26 GMT 48.501053 15.975639 5,825 334 261 64
2022-12-04 12:39:22 GMT 48.498539 15.969568 5,800 51 238 64
2022-12-04 12:39:18 GMT 48.495888 15.965014 5,800 40 244 64
2022-12-04 12:39:13 GMT 48.490395 15.958943 5,800 27 249 64
2022-12-04 12:39:10 GMT 48.487461 15.956774 5,800 21 252 64
2022-12-04 12:39:07 GMT 48.485046 15.955458 5,800 17 254 0
2022-12-04 12:39:03 GMT 48.479313 15.953739 5,800 356 259 -192
2022-12-04 12:39:00 GMT 48.476074 15.953557 5,825 350 260 -192
2022-12-04 12:38:57 GMT 48.473648 15.953768 5,825 350 260 -192
2022-12-04 12:38:54 GMT 48.466599 15.956163 5,825 342 261 -128
2022-12-04 12:38:51 GMT 48.466599 15.956163 5,825 342 261 -128
2022-12-04 12:38:48 GMT 48.461380 15.959825 5,825 329 260 64
2022-12-04 12:38:41 GMT 48.456299 15.965388 5,825 315 258 192
2022-12-04 12:38:37 GMT 48.452682 15.971304 5,800 307 255 192
2022-12-04 12:38:32 GMT 48.449478 15.979262 5,800 295 250 -64
2022-12-04 12:38:27 GMT 48.447464 15.986938 5,800 289 248 64
2022-12-04 12:38:21 GMT 48.445518 15.995805 5,800 288 246 -64
2022-12-04 12:38:18 GMT 48.443981 16.003033 5,800 288 246 -64
2022-12-04 12:38:11 GMT 48.441887 16.012791 5,800 288 245 -64
2022-12-04 12:38:05 GMT 48.439911 16.022291 5,800 288 244 -64
2022-12-04 12:38:01 GMT 48.438442 16.029053 5,825 288 243 -64
2022-12-04 12:37:56 GMT 48.436768 16.036930 5,825 288 243 0
2022-12-04 12:37:51 GMT 48.435013 16.045111 5,800 289 245 128
2022-12-04 12:37:46 GMT 48.433136 16.053490 5,800 289 246 64
2022-12-04 12:37:41 GMT 48.431271 16.061579 5,800 290 246 -64
2022-12-04 12:37:38 GMT 48.429977 16.067081 5,800 291 249 -128
2022-12-04 12:37:35 GMT 48.429153 16.070322 5,800 291 249 -128
2022-12-04 12:37:31 GMT 48.426849 16.079647 5,800 290 247 0
2022-12-04 12:37:25 GMT 48.425125 16.088972 5,800 280 245 -64
2022-12-04 12:37:21 GMT 48.424664 16.095909 5,800 272 241 0
2022-12-04 12:37:17 GMT 48.424805 16.100958 5,800 263 236 0
2022-12-04 12:37:14 GMT 48.425316 16.105740 5,800 260 234 0
2022-12-04 12:37:09 GMT 48.426910 16.113564 5,800 250 229 0
2022-12-04 12:37:05 GMT 48.428741 16.119198 5,800 240 223 64
2022-12-04 12:37:00 GMT 48.432110 16.126484 5,800 226 215 0
2022-12-04 12:36:55 GMT 48.434902 16.130821 5,800 220 213 64
2022-12-04 12:36:52 GMT 48.437229 16.133858 5,800 217 211 64
2022-12-04 12:36:49 GMT 48.439510 16.136387 5,800 208 207 -64
2022-12-04 12:36:46 GMT 48.442490 16.139133 5,800 209 208 -64
2022-12-04 12:36:42 GMT 48.445679 16.141733 5,800 205 206 0
2022-12-04 12:36:38 GMT 48.448837 16.143915 5,800 205 205 0
2022-12-04 12:36:35 GMT 48.451309 16.145536 5,800 203 203 64
2022-12-04 12:36:32 GMT 48.453735 16.147085 5,800 204 204 128
2022-12-04 12:36:29 GMT 48.456829 16.149107 5,800 205 203 64
2022-12-04 12:36:25 GMT 48.460922 16.152157 5,800 212 208 -128
2022-12-04 12:36:22 GMT 48.462509 16.153444 5,800 211 208 -128
2022-12-04 12:36:19 GMT 48.465813 16.156481 5,800 212 208 -128
2022-12-04 12:36:16 GMT 48.467815 16.158287 5,800 210 207 -64
2022-12-04 12:36:13 GMT 48.469540 16.159660 5,800 208 206 64
2022-12-04 12:36:10 GMT 48.472504 16.161734 5,800 201 203 0
2022-12-04 12:36:07 GMT 48.475220 16.162985 5,800 187 200 -64
2022-12-04 12:36:04 GMT 48.478149 16.163563 5,825 184 199 -64
2022-12-04 12:35:58 GMT 48.483078 16.162861 5,825 162 197 0
2022-12-04 12:35:55 GMT 48.486786 16.160748 5,825 153 198 64
2022-12-04 12:35:48 GMT 48.491592 16.155325 5,800 132 201 -64
2022-12-04 12:35:43 GMT 48.493881 16.150747 5,825 117 204 -64
2022-12-04 12:35:39 GMT 48.495701 16.144772 5,825 106 208 128
2022-12-04 12:35:35 GMT 48.496540 16.138411 5,825 90 217 -64
2022-12-04 12:35:32 GMT 48.496540 16.133568 5,800 84 220 0
2022-12-04 12:35:27 GMT 48.495838 16.127497 5,800 64 230 192
2022-12-04 12:35:24 GMT 48.494843 16.123140 5,800 58 234 0
2022-12-04 12:35:21 GMT 48.493374 16.118822 5,800 58 234 0
2022-12-04 12:35:18 GMT 48.491501 16.114832 5,800 51 237 -128
2022-12-04 12:35:13 GMT 48.487564 16.108492 5,800 42 242 -64
2022-12-04 12:35:10 GMT 48.484669 16.104439 5,800 42 242 -64
2022-12-04 12:35:07 GMT 48.482342 16.101259 5,800 42 242 0
2022-12-04 12:35:02 GMT 48.478382 16.095839 5,800 42 242 0
2022-12-04 12:34:59 GMT 48.475357 16.091719 5,800 42 242 0
2022-12-04 12:34:56 GMT 48.469955 16.084272 5,800 42 243 64
2022-12-04 12:34:53 GMT 48.469955 16.084272 5,800 42 243 64
2022-12-04 12:34:46 GMT 48.465069 16.077623 5,800 42 243 64
2022-12-04 12:34:42 GMT 48.461903 16.073286 5,800 42 243 -64
2022-12-04 12:34:39 GMT 48.456272 16.065554 5,800 42 243 0
2022-12-04 12:34:36 GMT 48.456272 16.065554 5,800 42 243 0
2022-12-04 12:34:32 GMT 48.453526 16.061794 5,800 42 243 -64
2022-12-04 12:34:29 GMT 48.450825 16.058109 5,800 42 243 64
2022-12-04 12:34:26 GMT 48.448124 16.054422 5,800 42 243 -64
2022-12-04 12:34:22 GMT 48.445099 16.050303 5,800 42 243 0
2022-12-04 12:34:19 GMT 48.442444 16.046616 5,800 42 243 0
2022-12-04 12:34:15 GMT 48.439651 16.042786 5,800 42 242 0
2022-12-04 12:34:11 GMT 48.436295 16.038208 5,800 42 242 0
2022-12-04 12:34:08 GMT 48.432484 16.033028 5,800 42 242 0
2022-12-04 12:34:05 GMT 48.431320 16.031439 5,800 42 242 -64
2022-12-04 12:34:02 GMT 48.427643 16.026447 5,800 42 243 -64
2022-12-04 12:33:56 GMT 48.422752 16.019800 5,800 42 243 -64
2022-12-04 12:33:52 GMT 48.419819 16.015753 5,825 42 243 -64
2022-12-04 12:33:49 GMT 48.417072 16.011995 5,800 42 243 0
2022-12-04 12:33:45 GMT 48.414143 16.008020 5,825 42 242 -64
2022-12-04 12:33:42 GMT 48.411766 16.004696 5,800 42 242 0
2022-12-04 12:33:39 GMT 48.409607 16.001799 5,800 42 242 0
2022-12-04 12:33:36 GMT 48.407227 15.998559 5,800 42 242 64
2022-12-04 12:33:32 GMT 48.403564 15.993488 5,800 42 241 64
2022-12-04 12:33:28 GMT 48.400269 15.989051 5,800 42 241 64
2022-12-04 12:33:25 GMT 48.394451 15.981132 5,800 42 240 0
2022-12-04 12:33:22 GMT 48.394451 15.981132 5,800 42 240 0
2022-12-04 12:33:19 GMT 48.392624 15.978628 5,800 42 240 0
2022-12-04 12:33:16 GMT 48.390656 15.975882 5,800 42 241 -64
2022-12-04 12:33:12 GMT 48.386162 15.969857 5,800 42 240 -64
2022-12-04 12:33:09 GMT 48.380390 15.961906 5,800 42 240 -64
2022-12-04 12:33:04 GMT 48.380390 15.961906 5,800 42 240 -64
2022-12-04 12:33:01 GMT 48.377689 15.958220 5,825 42 240 -64
2022-12-04 12:32:58 GMT 48.375824 15.955670 5,825 42 240 -64
2022-12-04 12:32:55 GMT 48.372944 15.951787 5,825 42 240 64
2022-12-04 12:32:52 GMT 48.370289 15.948173 5,825 42 240 64
2022-12-04 12:32:49 GMT 48.367355 15.944126 9,325 42 240 0
2022-12-04 12:32:46 GMT 48.365028 15.940945 5,800 42 240 0
2022-12-04 12:32:41 GMT 48.360947 15.935317 5,800 42 239 0
2022-12-04 12:32:38 GMT 48.358887 15.932500 5,800 42 239 0
2022-12-04 12:32:33 GMT 48.354973 15.927140 5,800 42 239 0
2022-12-04 12:32:30 GMT 48.352020 15.923063 5,800 42 238 0
2022-12-04 12:32:24 GMT 48.346779 15.915865 5,800 42 239 64
2022-12-04 12:32:21 GMT 48.343010 15.910733 5,800 42 239 0
2022-12-04 12:32:15 GMT 48.340668 15.907428 5,800 42 239 0
2022-12-04 12:32:12 GMT 48.337326 15.902851 5,800 42 239 64
2022-12-04 12:32:09 GMT 48.335358 15.900175 5,800 42 238 0
2022-12-04 12:32:06 GMT 48.332581 15.896277 5,800 42 237 0
2022-12-04 12:32:03 GMT 48.330208 15.892952 5,800 43 237 0
2022-12-04 12:31:59 GMT 48.327133 15.888688 5,800 43 237 64
2022-12-04 12:31:54 GMT 48.323551 15.883628 5,800 43 236 0
2022-12-04 12:31:51 GMT 48.320572 15.879399 5,800 43 235 64
2022-12-04 12:31:47 GMT 48.318283 15.876160 5,800 43 235 -64
2022-12-04 12:31:43 GMT 48.313820 15.869823 5,800 44 234 -64
2022-12-04 12:31:39 GMT 48.310730 15.865314 7,050 331 260 -64
2022-12-04 12:31:35 GMT 48.308372 15.861873 5,800 44 234 0
2022-12-04 12:31:32 GMT 48.306046 15.858403 5,800 44 234 0
2022-12-04 12:31:28 GMT 48.302124 15.852567 5,800 45 234 64
2022-12-04 12:31:25 GMT 48.300648 15.850380 5,800 45 234 64
2022-12-04 12:31:22 GMT 48.298321 15.846766 5,800 45 234 0
2022-12-04 12:31:18 GMT 48.295525 15.842430 5,800 45 234 -128
2022-12-04 12:31:14 GMT 48.291477 15.836431 5,825 43 235 -128
2022-12-04 12:31:11 GMT 48.290218 15.834696 5,825 41 236 -128
2022-12-04 12:31:08 GMT 48.287247 15.831017 5,825 35 239 -64
2022-12-04 12:31:01 GMT 48.280678 15.825444 5,825 20 246 -64
2022-12-04 12:30:58 GMT 48.277325 15.823782 5,825 12 251 0
2022-12-04 12:30:55 GMT 48.272461 15.822637 5,825 1 256 128
2022-12-04 12:30:52 GMT 48.269363 15.822553 5,800 357 257 192
2022-12-04 12:30:48 GMT 48.264709 15.823420 5,800 348 260 192
2022-12-04 12:30:44 GMT 48.256935 15.827613 5,800 338 261 0
2022-12-04 12:30:40 GMT 48.256935 15.827613 5,800 333 259 -64
2022-12-04 12:30:37 GMT 48.253372 15.830735 5,800 327 260 -64
2022-12-04 12:30:33 GMT 48.248657 15.835665 5,825 324 259 -64
2022-12-04 12:30:30 GMT 48.246693 15.837876 5,825 324 258 -64
2022-12-04 12:30:27 GMT 48.243389 15.841490 5,825 324 259 -64
2022-12-04 12:30:23 GMT 48.239731 15.845525 5,825 324 259 -64
2022-12-04 12:30:20 GMT 48.236824 15.848718 5,825 324 260 0
2022-12-04 12:30:17 GMT 48.233917 15.851933 5,825 324 260 64
2022-12-04 12:30:14 GMT 48.229839 15.856379 5,800 324 259 64
2022-12-04 12:30:11 GMT 48.227421 15.858981 5,800 324 259 128
2022-12-04 12:30:07 GMT 48.223663 15.863061 5,800 325 260 64
2022-12-04 12:30:03 GMT 48.220718 15.866282 5,800 325 260 64
2022-12-04 12:30:00 GMT 48.217411 15.869823 5,800 325 260 0
2022-12-04 12:29:56 GMT 48.213688 15.873871 5,800 324 259 -128
2022-12-04 12:29:53 GMT 48.210243 15.877629 5,800 324 260 -128
2022-12-04 12:29:50 GMT 48.207542 15.880593 5,825 324 260 -192
2022-12-04 12:29:46 GMT 48.203632 15.884929 5,825 324 259 -128
2022-12-04 12:29:42 GMT 48.200272 15.888625 5,825 324 259 -128
2022-12-04 12:29:39 GMT 48.197346 15.891796 5,825 324 258 -128
2022-12-04 12:29:35 GMT 48.193314 15.896231 5,825 324 259 64
2022-12-04 12:29:32 GMT 48.190613 15.899189 5,800 324 259 192
2022-12-04 12:29:29 GMT 48.187153 15.902999 5,800 324 259 192
2022-12-04 12:29:26 GMT 48.184219 15.906179 5,800 324 259 192
2022-12-04 12:29:23 GMT 48.181473 15.909143 5,800 325 260 128
2022-12-04 12:29:19 GMT 48.177563 15.913335 5,800 325 260 64
2022-12-04 12:29:16 GMT 48.174225 15.917006 5,800 325 260 0
2022-12-04 12:29:13 GMT 48.171478 15.919964 5,800 324 261 -64
2022-12-04 12:29:10 GMT 48.167862 15.923838 5,800 324 261 -128
2022-12-04 12:29:07 GMT 48.165787 15.926128 5,825 324 261 -128
2022-12-04 12:29:04 GMT 48.163193 15.928979 5,825 324 261 -128
2022-12-04 12:29:00 GMT 48.159500 15.933134 5,825 323 263 -192
2022-12-04 12:28:56 GMT 48.151726 15.942078 5,825 322 264 -128
2022-12-04 12:28:53 GMT 48.148144 15.946514 5,825 321 264 -64
2022-12-04 12:28:49 GMT 48.148144 15.946514 5,825 319 262 256
2022-12-04 12:28:45 GMT 48.144836 15.950981 5,825 293 253 64
2022-12-04 12:28:42 GMT 48.141483 15.956867 5,800 301 260 -64
2022-12-04 12:28:38 GMT 48.139389 15.961726 5,800 301 260 -64
2022-12-04 12:28:35 GMT 48.137787 15.966499 5,800 295 257 -64
2022-12-04 12:28:30 GMT 48.135727 15.973846 5,800 292 257 64
2022-12-04 12:28:27 GMT 48.134689 15.977854 5,800 293 255 64
2022-12-04 12:28:24 GMT 48.132965 15.984121 5,800 292 256 0
2022-12-04 12:28:21 GMT 48.132019 15.987579 5,800 292 256 -64
2022-12-04 12:28:17 GMT 48.130127 15.994544 5,800 293 253 -64
2022-12-04 12:28:13 GMT 48.128357 16.000969 5,800 293 255 -128
2022-12-04 12:28:10 GMT 48.126308 16.008490 5,800 293 254 -64
2022-12-04 12:28:07 GMT 48.125565 16.011024 5,825 293 254 -64
2022-12-04 12:28:03 GMT 48.123981 16.016939 5,825 293 253 0
2022-12-04 12:28:00 GMT 48.121979 16.024054 5,800 293 253 64
2022-12-04 12:27:57 GMT 48.120911 16.027925 5,800 293 253 64
2022-12-04 12:27:54 GMT 48.119328 16.033560 5,800 293 253 0
2022-12-04 12:27:51 GMT 48.118515 16.036606 5,800 293 252 -64
2022-12-04 12:27:47 GMT 48.116531 16.043772 5,800 293 252 0
2022-12-04 12:27:43 GMT 48.114716 16.050392 5,800 293 251 0
2022-12-04 12:27:39 GMT 48.112904 16.056940 5,800 293 250 64
2022-12-04 12:27:36 GMT 48.111179 16.063278 5,800 293 251 64
2022-12-04 12:27:33 GMT 48.110249 16.066589 5,800 293 252 64
2022-12-04 12:27:29 GMT 48.108170 16.074165 5,800 293 252 64
2022-12-04 12:27:26 GMT 48.107037 16.078350 5,800 293 252 -64
2022-12-04 12:27:23 GMT 48.105881 16.082474 5,800 293 252 -128
2022-12-04 12:27:20 GMT 48.104462 16.087555 5,800 293 252 0
2022-12-04 12:27:16 GMT 48.102814 16.093529 5,800 293 252 64
2022-12-04 12:27:13 GMT 48.101257 16.099297 5,800 293 252 128
2022-12-04 12:27:08 GMT 48.099289 16.106438 5,800 293 252 64
2022-12-04 12:27:05 GMT 48.097870 16.111588 5,800 293 252 -64
2022-12-04 12:27:02 GMT 48.096703 16.115816 5,800 293 253 -64
2022-12-04 12:26:58 GMT 48.094986 16.121887 5,800 293 253 -64
2022-12-04 12:26:55 GMT 48.093258 16.128210 5,800 293 252 448
2022-12-04 12:26:52 GMT 48.092148 16.132256 5,775 293 252 576
2022-12-04 12:26:49 GMT 48.090500 16.138161 5,750 293 252 960
2022-12-04 12:26:45 GMT 48.088715 16.144753 5,675 293 252 1024
2022-12-04 12:26:41 GMT 48.086880 16.151381 5,600 293 251 1024
2022-12-04 12:26:36 GMT 48.083618 16.163000 5,500 293 251 960
2022-12-04 12:26:33 GMT 48.083618 16.163000 5,450 293 250 960
2022-12-04 12:26:30 GMT 48.082085 16.168707 5,425 293 249 960
2022-12-04 12:26:26 GMT 48.080223 16.175537 5,350 293 248 960
2022-12-04 12:26:22 GMT 48.078545 16.181522 5,300 293 249 960
2022-12-04 12:26:18 GMT 48.076996 16.187050 5,250 293 249 960
2022-12-04 12:26:14 GMT 48.075485 16.192612 5,150 293 249 896
2022-12-04 12:26:11 GMT 48.073936 16.198214 5,125 293 248 896
2022-12-04 12:26:08 GMT 48.072601 16.202980 5,100 293 248 896
2022-12-04 12:26:05 GMT 48.071236 16.208002 5,050 293 247 960
2022-12-04 12:26:01 GMT 48.069885 16.212791 4,950 293 245 1088
2022-12-04 12:25:58 GMT 48.068573 16.217537 4,900 293 245 1088
2022-12-04 12:25:55 GMT 48.066814 16.223707 4,850 293 245 832
2022-12-04 12:25:52 GMT 48.065372 16.229132 4,825 293 246 512
2022-12-04 12:25:48 GMT 48.063744 16.234905 4,800 293 246 256
2022-12-04 12:25:44 GMT 48.061752 16.242050 4,800 293 247 128
2022-12-04 12:25:41 GMT 48.059601 16.249809 4,800 293 248 -64
2022-12-04 12:25:38 GMT 48.059601 16.249809 4,800 293 248 -64
2022-12-04 12:25:35 GMT 48.057922 16.256033 4,800 293 247 -64
2022-12-04 12:25:31 GMT 48.056572 16.260822 4,800 293 248 64
2022-12-04 12:25:28 GMT 48.053871 16.270470 4,800 293 248 64
2022-12-04 12:25:25 GMT 48.053871 16.270470 4,800 293 248 0
2022-12-04 12:25:22 GMT 48.052479 16.275541 4,800 293 248 -64
2022-12-04 12:25:19 GMT 48.050896 16.281317 4,800 293 247 -128
2022-12-04 12:25:16 GMT 48.050011 16.284344 4,800 293 247 -128
2022-12-04 12:25:13 GMT 48.048157 16.291145 4,825 293 247 -64
2022-12-04 12:25:10 GMT 48.047424 16.293686 4,825 293 247 -64
2022-12-04 12:25:07 GMT 48.045914 16.299133 4,825 293 247 0
2022-12-04 12:25:03 GMT 48.044083 16.305771 4,800 293 247 -64
2022-12-04 12:25:00 GMT 48.042526 16.311401 4,800 293 247 64
2022-12-04 12:24:56 GMT 48.041290 16.315796 4,800 293 247 64
2022-12-04 12:24:53 GMT 48.039955 16.320543 4,800 293 247 64
2022-12-04 12:24:50 GMT 48.038696 16.325050 4,800 293 247 64
2022-12-04 12:24:46 GMT 48.036667 16.332207 4,800 293 247 -64
2022-12-04 12:24:43 GMT 48.035347 16.336952 4,825 293 246 -128
2022-12-04 12:24:40 GMT 48.034012 16.341682 4,825 293 246 -64
2022-12-04 12:24:37 GMT 48.032551 16.347094 4,825 292 245 64
2022-12-04 12:24:33 GMT 48.031063 16.352728 4,800 289 244 128
2022-12-04 12:24:30 GMT 48.029854 16.357727 4,800 283 242 64
2022-12-04 12:24:27 GMT 48.029015 16.361671 4,800 285 243 128
2022-12-04 12:24:24 GMT 48.027386 16.372093 4,800 282 240 64
2022-12-04 12:24:21 GMT 48.026825 16.377663 4,800 279 240 0
2022-12-04 12:24:18 GMT 48.026825 16.377663 4,800 275 237 0
2022-12-04 12:24:15 GMT 48.026230 16.388786 4,800 275 237 0
2022-12-04 12:24:11 GMT 48.026230 16.388786 4,800 271 236 -64
2022-12-04 12:24:08 GMT 48.026184 16.393387 4,800 271 236 0
2022-12-04 12:24:05 GMT 48.026184 16.397232 4,800 271 236 64
2022-12-04 12:24:02 GMT 48.026138 16.403137 4,800 271 236 64
2022-12-04 12:23:59 GMT 48.026127 16.407377 4,800 271 238 -64
2022-12-04 12:23:56 GMT 48.026081 16.413080 4,800 271 237 0
2022-12-04 12:23:52 GMT 48.026093 16.420097 4,800 271 238 -128
2022-12-04 12:23:49 GMT 48.026081 16.424419 4,825 271 237 -128
2022-12-04 12:23:46 GMT 48.026035 16.428997 4,825 270 236 -64
2022-12-04 12:23:41 GMT 48.026035 16.436886 4,800 270 235 -64
2022-12-04 12:23:38 GMT 48.026035 16.442730 4,825 270 235 0
2022-12-04 12:23:35 GMT 48.026047 16.446259 4,825 270 235 0
2022-12-04 12:23:32 GMT 48.026035 16.451181 4,800 270 234 128
2022-12-04 12:23:29 GMT 48.026047 16.457314 4,800 230 207 0
2022-12-04 12:23:26 GMT 48.026081 16.463366 4,800 271 235 0
2022-12-04 12:23:21 GMT 48.026035 16.469280 4,800 271 236 64
2022-12-04 12:23:18 GMT 48.025990 16.473858 4,800 271 238 -64
2022-12-04 12:23:15 GMT 48.025990 16.479774 4,800 271 239 0
2022-12-04 12:23:10 GMT 48.025944 16.486958 4,800 271 238 64
2022-12-04 12:23:07 GMT 48.025864 16.493225 4,800 271 237 384
2022-12-04 12:23:04 GMT 48.025864 16.496590 4,775 271 237 640
2022-12-04 12:23:00 GMT 48.025757 16.504141 4,650 272 237 1280
2022-12-04 12:22:57 GMT 48.025707 16.509987 4,600 272 237 1664
2022-12-04 12:22:54 GMT 48.025681 16.512932 4,550 272 237 1664
2022-12-04 12:22:50 GMT 48.025570 16.520479 4,425 271 236 1536
2022-12-04 12:22:45 GMT 48.025543 16.528587 4,250 269 235 1728
2022-12-04 12:22:42 GMT 48.025616 16.533438 4,225 267 233 1792
2022-12-04 12:22:38 GMT 48.026276 16.540672 3,950 230 207 0
2022-12-04 12:22:35 GMT 48.027283 16.545891 3,950 250 220 1664
2022-12-04 12:22:32 GMT 48.028061 16.548843 3,900 243 216 1664
2022-12-04 12:22:29 GMT 48.029114 16.552071 3,900 243 216 1664
2022-12-04 12:22:25 GMT 48.031265 16.557014 3,725 231 208 1600
2022-12-04 12:22:22 GMT 48.034012 16.561958 3,650 230 207 1664
2022-12-04 12:22:19 GMT 48.035248 16.564087 3,600 230 207 1664
2022-12-04 12:22:14 GMT 48.038883 16.570412 3,400 230 202 2176
2022-12-04 12:22:09 GMT 48.041119 16.574354 3,100 232 201 2048
2022-12-04 12:22:06 GMT 48.043491 16.578651 3,100 232 201 2048
2022-12-04 12:22:03 GMT 48.044609 16.580692 3,050 232 201 2176
2022-12-04 12:21:59 GMT 48.048752 16.588326 2,900 231 199 1600
2022-12-04 12:21:56 GMT 48.048752 16.588326 2,850 231 198 1408
2022-12-04 12:21:53 GMT 48.051086 16.592308 2,775 228 194 1024
2022-12-04 12:21:49 GMT 48.053192 16.595261 2,725 219 185 768
2022-12-04 12:21:46 GMT 48.055828 16.598019 2,625 191 165 1088
2022-12-04 12:21:43 GMT 48.057552 16.599285 2,675 201 172 768
2022-12-04 12:21:40 GMT 48.059464 16.600204 2,650 194 167 960
2022-12-04 12:21:37 GMT 48.061695 16.600763 2,600 177 159 1408
2022-12-04 12:21:33 GMT 48.064999 16.600554 2,500 169 154 1728
2022-12-04 12:21:29 GMT 48.067612 16.599655 2,375 165 151 1984
2022-12-04 12:21:24 GMT 48.070862 16.598419 2,225 165 148 1920
2022-12-04 12:21:21 GMT 48.073097 16.597525 1,975 165 146 2368
2022-12-04 12:21:18 GMT 48.074680 16.596960 2,000 164 148 2688
2022-12-04 12:21:12 GMT 48.078781 16.595261 1,650 165 151 2432
2022-12-04 12:21:09 GMT 48.083359 16.593475 1,450 164 152 1856
2022-12-04 12:21:02 GMT 48.085831 16.592445 1,250 164 150 1984
2022-12-04 12:20:59 GMT 48.088135 16.591539 1,225 164 149 2048
2022-12-04 12:20:52 GMT 48.092789 16.589630 975 164 149 2048
2022-12-04 12:20:48 GMT 48.094837 16.588793 875 164 148 1920

Making use of Plane Finder data

You are free to use the raw flight data, aircraft information and images provided in this report for your own purposes provided the data is correctly attributed to Plane Finder. We ask that you please credit Plane Finder and link to planefinder.net in close proximity to the content.

Optionally one of the following logos (no smaller then 150x24px) can be used and must link to planefinder.net

Embedding the Plane Finder map

You are welcome to embed the Plane Finder playback map on your website to offer visitors a more interactive experience. We suggest using the following HTML code:

<iframe src="//planefinder.net/data/report/OS293-OE-LWN-7700-squawk-2022-12-04/map" width="800" height="600" seamless="seamless"></iframe>

Where our data comes from

Plane Finder has a global network of data feeds and antenna radars that receive data broadcast directly from aircraft. The primary technologies used are ADS-B and MLAT. We also show feeds from the FAA and a FLARM glider feed.

Click here to find out more about the Plane Finder network.

How we collect our data